createdAt,value
2022-11-15T00:01:46.971Z,9.38
2022-11-15T00:04:13.381Z,9.07
2022-11-15T00:06:39.826Z,9.30
2022-11-15T00:09:06.190Z,9.05
2022-11-15T00:11:32.599Z,8.63
2022-11-15T00:13:59.230Z,9.15
2022-11-15T00:16:25.939Z,8.80
2022-11-15T00:18:52.409Z,9.23
2022-11-15T00:21:18.882Z,9.45
2022-11-15T00:23:45.270Z,8.70
2022-11-15T00:26:12.597Z,8.65
2022-11-15T00:28:39.076Z,9.20
2022-11-15T00:31:06.531Z,8.73
2022-11-15T00:33:33.633Z,8.88
2022-11-15T00:36:01.402Z,9.20
2022-11-15T00:38:31.479Z,9.07
2022-11-15T00:40:57.925Z,9.52
2022-11-15T00:43:24.628Z,9.38
2022-11-15T00:45:51.054Z,8.63
2022-11-15T00:48:17.445Z,9.65
2022-11-15T00:50:44.092Z,9.10
2022-11-15T00:53:10.587Z,9.32
2022-11-15T00:55:37.037Z,9.32
2022-11-15T00:58:03.497Z,8.73
2022-11-15T01:00:29.998Z,8.45
2022-11-15T01:02:56.487Z,9.50
2022-11-15T01:05:23.053Z,8.77
2022-11-15T01:07:52.706Z,9.20
2022-11-15T01:10:19.190Z,9.25
2022-11-15T01:12:45.737Z,8.90
2022-11-15T01:15:12.194Z,8.95
2022-11-15T01:17:38.641Z,8.90
2022-11-15T01:20:05.582Z,8.63
2022-11-15T01:22:32.035Z,9.05
2022-11-15T01:24:58.550Z,9.20
2022-11-15T01:27:25.000Z,8.73
2022-11-15T01:29:51.439Z,9.02
2022-11-15T01:32:18.453Z,9.10
2022-11-15T01:34:44.950Z,8.45
2022-11-15T01:37:11.402Z,9.27
2022-11-15T01:39:37.844Z,8.93
2022-11-15T01:42:04.457Z,9.23
2022-11-15T01:44:41.708Z,8.90
2022-11-15T01:47:22.607Z,8.65
2022-11-15T01:49:51.674Z,8.98
2022-11-15T01:52:20.080Z,8.63
2022-11-15T01:54:47.183Z,9.32
2022-11-15T01:57:14.175Z,8.48
2022-11-15T01:59:41.810Z,8.88
2022-11-15T02:02:08.273Z,8.50
2022-11-15T02:04:40.936Z,8.80
2022-11-15T02:07:09.283Z,8.75
2022-11-15T02:09:37.052Z,8.48
2022-11-15T02:12:03.755Z,8.25
2022-11-15T02:14:30.963Z,8.50
2022-11-15T02:17:08.172Z,8.52
2022-11-15T02:19:34.639Z,8.38
2022-11-15T02:22:10.321Z,8.63
2022-11-15T02:24:46.926Z,9.30
2022-11-15T02:27:28.554Z,8.73
2022-11-15T02:30:07.458Z,8.03
2022-11-15T02:32:33.950Z,8.10
2022-11-15T02:35:13.843Z,8.25
2022-11-15T02:38:19.076Z,7.32
2022-11-15T02:40:54.010Z,8.27
2022-11-15T02:43:49.160Z,8.63
2022-11-15T02:46:18.399Z,8.25
2022-11-15T02:48:45.795Z,7.88
2022-11-15T02:51:12.934Z,7.65
2022-11-15T02:53:39.342Z,8.15
2022-11-15T02:56:05.869Z,8.65
2022-11-15T02:58:45.915Z,8.15
2022-11-15T03:01:12.394Z,7.93
2022-11-15T03:03:44.706Z,8.07
2022-11-15T03:06:20.256Z,8.35
2022-11-15T03:09:01.184Z,8.73
2022-11-15T03:11:30.386Z,7.70
2022-11-15T03:14:01.528Z,8.52
2022-11-15T03:16:46.103Z,8.10
2022-11-15T03:19:15.647Z,7.78
2022-11-15T03:21:42.198Z,7.53
2022-11-15T03:24:09.536Z,8.25
2022-11-15T03:26:37.874Z,7.88
2022-11-15T03:29:12.716Z,8.00
2022-11-15T03:31:51.209Z,8.18
2022-11-15T03:34:33.275Z,7.43
2022-11-15T03:36:59.750Z,8.13
2022-11-15T03:39:26.965Z,7.80
2022-11-15T03:41:53.372Z,8.00
2022-11-15T03:44:32.518Z,7.18
2022-11-15T03:47:05.068Z,8.38
2022-11-15T03:49:35.933Z,7.03
2022-11-15T03:52:05.552Z,7.93
2022-11-15T03:54:32.121Z,8.25
2022-11-15T03:56:58.555Z,7.85
2022-11-15T03:59:25.148Z,8.40
2022-11-15T04:01:51.694Z,8.05
2022-11-15T04:04:18.243Z,7.53
2022-11-15T04:06:44.808Z,7.82
2022-11-15T04:09:11.330Z,7.75
2022-11-15T04:11:37.778Z,7.50
2022-11-15T04:14:04.251Z,7.45
2022-11-15T04:16:30.708Z,8.02
2022-11-15T04:19:16.099Z,7.43
2022-11-15T04:22:01.339Z,8.10
2022-11-15T04:24:27.784Z,8.20
2022-11-15T04:26:54.215Z,8.07
2022-11-15T04:29:35.803Z,8.10
2022-11-15T04:32:03.540Z,7.75
2022-11-15T04:34:29.934Z,7.93
2022-11-15T04:37:15.008Z,7.68
2022-11-15T04:39:41.615Z,8.13
2022-11-15T04:42:08.507Z,8.20
2022-11-15T04:44:35.138Z,7.80
2022-11-15T04:47:02.096Z,8.00
2022-11-15T04:49:28.608Z,7.78
2022-11-15T04:51:55.101Z,7.90
2022-11-15T04:54:21.578Z,8.07
2022-11-15T04:56:48.059Z,7.25
2022-11-15T04:59:14.497Z,7.53
2022-11-15T05:01:44.911Z,7.97
2022-11-15T05:04:20.856Z,8.40
2022-11-15T05:06:48.278Z,8.07
2022-11-15T05:09:14.976Z,7.85
2022-11-15T05:11:41.712Z,7.22
2022-11-15T05:14:08.135Z,7.90
2022-11-15T05:16:34.530Z,7.40
2022-11-15T05:19:00.945Z,6.75
2022-11-15T05:21:27.364Z,7.60
2022-11-15T05:23:53.799Z,6.80
2022-11-15T05:26:20.237Z,7.20
2022-11-15T05:28:46.626Z,7.15
2022-11-15T05:31:16.786Z,7.53
2022-11-15T05:33:44.070Z,7.47
2022-11-15T05:36:18.672Z,6.80
2022-11-15T05:38:45.725Z,7.03
2022-11-15T05:41:12.796Z,7.00
2022-11-15T05:43:40.629Z,7.10
2022-11-15T05:46:07.105Z,6.30
2022-11-15T05:48:35.210Z,6.88
2022-11-15T05:51:02.492Z,6.60
2022-11-15T05:53:29.110Z,7.10
2022-11-15T05:55:55.739Z,6.95
2022-11-15T05:58:22.126Z,7.00
2022-11-15T06:00:48.595Z,6.85
2022-11-15T06:03:15.268Z,6.60
2022-11-15T06:05:41.886Z,6.53
2022-11-15T06:08:08.457Z,6.82
2022-11-15T06:10:34.877Z,6.32
2022-11-15T06:13:02.085Z,6.32
2022-11-15T06:15:29.264Z,6.45
2022-11-15T06:17:58.855Z,6.93
2022-11-15T06:20:25.611Z,6.45
2022-11-15T06:22:52.069Z,6.20
2022-11-15T06:25:18.453Z,6.25
2022-11-15T06:27:44.890Z,6.43
2022-11-15T06:30:11.434Z,6.35
2022-11-15T06:32:37.947Z,6.43
2022-11-15T06:35:04.689Z,6.10
2022-11-15T06:37:31.087Z,6.22
2022-11-15T06:39:57.806Z,6.72
2022-11-15T06:42:24.247Z,6.50
2022-11-15T06:44:50.673Z,6.50
2022-11-15T06:47:17.029Z,6.00
2022-11-15T06:49:43.423Z,6.47
2022-11-15T06:52:09.844Z,6.28
2022-11-15T06:54:36.265Z,6.82
2022-11-15T06:57:02.694Z,6.90
2022-11-15T06:59:29.121Z,6.55
2022-11-15T07:01:55.580Z,6.68
2022-11-15T07:04:22.012Z,7.10
2022-11-15T07:06:49.363Z,6.47
2022-11-15T07:09:16.048Z,6.55
2022-11-15T07:11:42.465Z,7.15
2022-11-15T07:14:09.029Z,6.55
2022-11-15T07:16:35.600Z,6.50
2022-11-15T07:19:02.066Z,7.35
2022-11-15T07:21:28.474Z,6.63
2022-11-15T07:23:54.945Z,6.72
2022-11-15T07:26:21.451Z,7.03
2022-11-15T07:28:48.034Z,7.25
2022-11-15T07:31:14.385Z,6.82
2022-11-15T07:33:40.971Z,7.22
2022-11-15T07:36:07.656Z,6.88
2022-11-15T07:38:41.058Z,7.18
2022-11-15T07:41:09.204Z,7.50
2022-11-15T07:43:36.416Z,7.05
2022-11-15T07:46:12.392Z,7.30
2022-11-15T07:48:44.368Z,7.32
2022-11-15T07:53:40.593Z,6.88
2022-11-15T07:56:07.737Z,6.95
2022-11-15T07:58:34.328Z,6.80
2022-11-15T08:01:03.856Z,6.93
2022-11-15T08:03:30.649Z,7.20
2022-11-15T08:05:57.270Z,7.65
2022-11-15T08:08:23.652Z,7.30
2022-11-15T08:10:50.120Z,7.55
2022-11-15T08:13:16.625Z,7.07
2022-11-15T08:15:44.052Z,7.75
2022-11-15T08:18:12.915Z,7.03
2022-11-15T08:20:39.335Z,7.47
2022-11-15T08:23:06.410Z,6.80
2022-11-15T08:25:33.506Z,7.55
2022-11-15T08:28:01.580Z,7.05
2022-11-15T08:30:28.429Z,6.70
2022-11-15T08:32:57.157Z,6.88
2022-11-15T08:35:27.782Z,6.93
2022-11-15T08:37:55.623Z,7.13
2022-11-15T08:40:22.186Z,6.60
2022-11-15T08:42:48.921Z,6.63
2022-11-15T08:45:15.757Z,7.13
2022-11-15T08:47:42.248Z,6.97
2022-11-15T08:50:08.909Z,7.57
2022-11-15T08:52:35.348Z,6.60
2022-11-15T08:55:01.830Z,6.75
2022-11-15T08:57:31.540Z,6.78
2022-11-15T08:59:58.055Z,7.15
2022-11-15T09:02:24.580Z,6.80
2022-11-15T09:04:50.924Z,6.28
2022-11-15T09:07:17.468Z,6.78
2022-11-15T09:09:44.047Z,6.53
2022-11-15T09:12:10.603Z,6.43
2022-11-15T09:14:36.997Z,6.32
2022-11-15T09:17:04.164Z,6.50
2022-11-15T09:19:30.557Z,6.25
2022-11-15T09:21:57.006Z,5.97
2022-11-15T09:24:23.518Z,6.35
2022-11-15T09:26:50.781Z,6.78
2022-11-15T09:32:01.128Z,6.28
2022-11-15T09:34:27.491Z,6.50
2022-11-15T09:36:53.883Z,6.35
2022-11-15T09:39:20.811Z,6.28
2022-11-15T09:41:56.244Z,6.53
2022-11-15T09:44:41.409Z,6.25
2022-11-15T09:47:23.076Z,6.30
2022-11-15T09:49:57.888Z,6.40
2022-11-15T09:52:24.473Z,6.57
2022-11-15T09:54:54.786Z,6.57
2022-11-15T09:57:31.121Z,6.38
2022-11-15T10:00:30.796Z,5.97
2022-11-15T10:03:09.971Z,6.68
2022-11-15T10:05:47.101Z,6.35
2022-11-15T10:08:28.909Z,6.10
2022-11-15T10:11:22.804Z,6.20
2022-11-15T10:13:47.191Z,6.38
2022-11-15T10:16:35.639Z,5.82
2022-11-15T10:19:08.450Z,6.25
2022-11-15T10:22:13.150Z,6.00
2022-11-15T10:24:42.676Z,5.65
2022-11-15T10:27:11.721Z,5.82
2022-11-15T10:29:43.185Z,6.05
2022-11-15T10:32:11.268Z,5.67
2022-11-15T10:34:37.761Z,5.53
2022-11-15T10:37:04.321Z,6.05
2022-11-15T10:42:28.414Z,5.95
2022-11-15T10:44:55.202Z,6.57
2022-11-15T10:47:23.573Z,6.18
2022-11-15T10:49:58.146Z,5.82
2022-11-15T10:52:25.994Z,5.72
2022-11-15T10:54:58.430Z,6.72
2022-11-15T10:59:55.651Z,5.90
2022-11-15T11:02:30.094Z,6.07
2022-11-15T11:04:56.757Z,6.03
2022-11-15T11:07:27.993Z,5.90
2022-11-15T11:10:22.878Z,6.30
2022-11-15T11:12:53.086Z,5.35
2022-11-15T11:15:19.692Z,6.55
2022-11-15T11:17:46.100Z,5.40
2022-11-15T11:20:24.575Z,6.32
2022-11-15T11:23:10.360Z,5.88
2022-11-15T11:25:41.468Z,6.65
2022-11-15T11:28:10.711Z,5.90
2022-11-15T11:30:49.485Z,6.30
2022-11-15T11:33:21.727Z,6.22
2022-11-15T11:36:06.980Z,5.78
2022-11-15T11:38:33.730Z,6.32
2022-11-15T11:41:18.688Z,6.43
2022-11-15T11:43:45.405Z,5.95
2022-11-15T11:46:30.192Z,6.13
2022-11-15T11:48:56.583Z,6.05
2022-11-15T11:51:30.011Z,6.03
2022-11-15T11:53:58.888Z,5.63
2022-11-15T11:56:35.822Z,5.75
2022-11-15T11:59:12.059Z,6.28
2022-11-15T12:01:42.198Z,5.68
2022-11-15T12:04:15.849Z,6.00
2022-11-15T12:07:00.845Z,6.00
2022-11-15T12:09:42.438Z,5.80
2022-11-15T12:12:12.097Z,5.78
2022-11-15T12:14:56.452Z,6.15
2022-11-15T12:17:24.936Z,5.88
2022-11-15T12:19:52.517Z,6.05
2022-11-15T12:22:18.874Z,6.43
2022-11-15T12:24:58.003Z,5.63
2022-11-15T12:27:39.359Z,5.72
2022-11-15T12:30:26.381Z,6.32
2022-11-15T12:32:55.724Z,5.57
2022-11-15T12:35:25.241Z,5.78
2022-11-15T12:37:52.328Z,5.75
2022-11-15T12:40:21.509Z,6.72
2022-11-15T12:42:57.187Z,5.97
2022-11-15T12:45:28.735Z,5.85
2022-11-15T12:47:57.126Z,6.50
2022-11-15T12:50:46.595Z,5.88
2022-11-15T12:53:28.526Z,5.68
2022-11-15T12:56:07.212Z,5.93
2022-11-15T12:58:52.053Z,5.68
2022-11-15T13:01:33.875Z,5.68
2022-11-15T13:04:09.412Z,5.65
2022-11-15T13:06:39.169Z,5.63
2022-11-15T13:09:25.562Z,5.60
2022-11-15T13:11:53.583Z,5.47
2022-11-15T13:14:38.537Z,5.15
2022-11-15T13:17:17.262Z,5.43
2022-11-15T13:19:44.329Z,5.47
2022-11-15T13:22:29.439Z,5.65
2022-11-15T13:24:56.209Z,5.32
2022-11-15T13:27:22.959Z,5.70
2022-11-15T13:29:49.411Z,5.25
2022-11-15T13:32:16.548Z,5.38
2022-11-15T13:34:52.755Z,5.50
2022-11-15T13:37:22.534Z,4.85
2022-11-15T13:39:50.189Z,4.53
2022-11-15T13:42:17.545Z,4.70
2022-11-15T13:44:57.287Z,5.05
2022-11-15T13:47:27.855Z,5.22
2022-11-15T13:49:54.319Z,5.05
2022-11-15T13:52:21.861Z,4.72
2022-11-15T13:54:52.345Z,4.88
2022-11-15T13:57:23.296Z,4.63
2022-11-15T13:59:52.551Z,4.40
2022-11-15T14:02:20.213Z,5.32
2022-11-15T14:05:06.887Z,4.72
2022-11-15T14:07:43.233Z,4.88
2022-11-15T14:10:46.108Z,4.35
2022-11-15T14:13:29.574Z,4.30
2022-11-15T14:16:13.003Z,4.40
2022-11-15T14:18:44.524Z,4.43
2022-11-15T14:21:11.060Z,4.33
2022-11-15T14:23:37.541Z,4.70
2022-11-15T14:26:10.280Z,4.25
2022-11-15T14:28:40.271Z,4.40
2022-11-15T14:31:11.536Z,4.13
2022-11-15T14:33:38.356Z,4.25
2022-11-15T14:36:06.672Z,3.85
2022-11-15T14:38:33.837Z,4.55
2022-11-15T14:41:00.644Z,3.85
2022-11-15T14:43:27.177Z,4.10
2022-11-15T14:45:53.622Z,4.35
2022-11-15T14:48:20.025Z,4.43
2022-11-15T14:50:46.500Z,4.00
2022-11-15T14:53:14.183Z,4.25
2022-11-15T14:55:40.730Z,4.57
2022-11-15T14:58:10.615Z,4.40
2022-11-15T15:00:37.796Z,4.40
2022-11-15T15:03:04.920Z,4.00
2022-11-15T15:05:44.241Z,3.95
2022-11-15T15:08:11.029Z,4.63
2022-11-15T15:10:40.943Z,3.95
2022-11-15T15:13:14.936Z,3.70
2022-11-15T15:15:41.433Z,4.20
2022-11-15T15:18:09.645Z,4.10
2022-11-15T15:20:38.955Z,4.40
2022-11-15T15:23:05.431Z,4.68
2022-11-15T15:25:33.843Z,4.22
2022-11-15T15:28:00.577Z,3.83
2022-11-15T15:30:27.625Z,4.05
2022-11-15T15:32:55.055Z,4.60
2022-11-15T15:35:21.651Z,4.22
2022-11-15T15:37:48.868Z,4.63
2022-11-15T15:40:17.026Z,3.85
2022-11-15T15:42:43.736Z,4.40
2022-11-15T15:45:10.553Z,4.35
2022-11-15T15:47:37.257Z,4.13
2022-11-15T15:50:04.088Z,4.50
2022-11-15T15:52:30.879Z,3.92
2022-11-15T15:54:57.407Z,4.00
2022-11-15T15:57:23.940Z,4.43
2022-11-15T15:59:50.391Z,4.50
2022-11-15T16:02:16.852Z,4.63
2022-11-15T16:04:43.244Z,4.32
2022-11-15T16:07:16.599Z,4.78
2022-11-15T16:10:01.649Z,4.50
2022-11-15T16:12:32.560Z,4.13
2022-11-15T16:14:59.562Z,3.97
2022-11-15T16:17:34.549Z,4.25
2022-11-15T16:20:01.285Z,4.13
2022-11-15T16:22:29.617Z,4.05
2022-11-15T16:24:56.319Z,4.25
2022-11-15T16:27:22.991Z,4.03
2022-11-15T16:29:49.825Z,4.65
2022-11-15T16:32:16.791Z,4.60
2022-11-15T16:34:48.515Z,4.53
2022-11-15T16:39:41.851Z,4.90
2022-11-15T16:42:08.245Z,5.10
2022-11-15T16:44:34.612Z,5.15
2022-11-15T16:47:02.162Z,5.32
2022-11-15T16:49:28.708Z,5.95
2022-11-15T16:51:55.148Z,5.75
2022-11-15T16:54:21.580Z,5.50
2022-11-15T16:56:48.321Z,5.70
2022-11-15T16:59:16.831Z,6.13
2022-11-15T17:01:50.557Z,6.18
2022-11-15T17:04:18.271Z,6.03
2022-11-15T17:06:46.124Z,6.45
2022-11-15T17:09:17.423Z,6.50
2022-11-15T17:11:44.314Z,6.65
2022-11-15T17:14:11.369Z,6.72
2022-11-15T17:16:42.261Z,7.43
2022-11-15T17:19:15.456Z,6.18
2022-11-15T17:21:42.956Z,7.32
2022-11-15T17:24:09.599Z,7.25
2022-11-15T17:26:40.296Z,7.10
2022-11-15T17:29:08.200Z,7.63
2022-11-15T17:31:38.399Z,7.25
2022-11-15T17:34:05.670Z,7.40
2022-11-15T17:36:32.563Z,7.40
2022-11-15T17:38:59.876Z,7.57
2022-11-15T17:41:26.937Z,7.97
2022-11-15T17:43:53.490Z,8.07
2022-11-15T17:46:21.152Z,8.55
2022-11-15T17:48:48.013Z,8.18
2022-11-15T17:51:15.582Z,9.07
2022-11-15T17:53:43.437Z,9.35
2022-11-15T17:56:11.393Z,9.25
2022-11-15T17:58:38.284Z,9.52
2022-11-15T18:01:25.059Z,9.63
2022-11-15T18:03:51.812Z,9.63
2022-11-15T18:06:19.155Z,10.40
2022-11-15T18:08:46.393Z,10.48
2022-11-15T18:11:15.994Z,11.10
2022-11-15T18:13:49.473Z,11.25
2022-11-15T18:16:19.437Z,11.90
2022-11-15T18:18:46.313Z,11.55
2022-11-15T18:21:15.492Z,11.50
2022-11-15T18:23:42.785Z,11.68
2022-11-15T18:26:10.599Z,11.70
2022-11-15T18:28:38.729Z,11.98
2022-11-15T18:31:12.281Z,11.85
2022-11-15T18:33:39.287Z,12.18
2022-11-15T18:36:07.148Z,12.45
2022-11-15T18:38:33.760Z,11.95
2022-11-15T18:41:05.951Z,12.55
2022-11-15T18:43:32.710Z,12.70
2022-11-15T18:46:03.197Z,12.73
2022-11-15T18:48:30.895Z,13.07
2022-11-15T18:51:05.085Z,12.18
2022-11-15T18:53:32.613Z,12.27
2022-11-15T18:56:03.339Z,12.88
2022-11-15T18:58:30.822Z,13.07
2022-11-15T19:01:01.007Z,12.50
2022-11-15T19:03:30.781Z,13.30
2022-11-15T19:06:04.903Z,13.60
2022-11-15T19:08:35.188Z,13.13
2022-11-15T19:11:12.532Z,13.25
2022-11-15T19:13:39.428Z,12.82
2022-11-15T19:16:06.615Z,12.45
2022-11-15T19:18:33.330Z,13.02
2022-11-15T19:21:03.708Z,13.38
2022-11-15T19:23:33.751Z,12.82
2022-11-15T19:26:01.025Z,13.10
2022-11-15T19:28:27.939Z,13.15
2022-11-15T19:30:55.052Z,13.40
2022-11-15T19:33:26.525Z,12.73
2022-11-15T19:36:00.025Z,13.15
2022-11-15T19:38:26.423Z,12.50
2022-11-15T19:40:57.549Z,12.70
2022-11-15T19:43:24.058Z,13.45
2022-11-15T19:46:01.975Z,13.50
2022-11-15T19:48:30.141Z,13.38
2022-11-15T19:50:59.731Z,12.75
2022-11-15T19:53:29.093Z,13.45
2022-11-15T19:56:04.442Z,13.43
2022-11-15T19:58:31.151Z,13.38
2022-11-15T20:01:24.731Z,12.77
2022-11-15T20:03:53.986Z,12.73
2022-11-15T20:06:22.046Z,12.25
2022-11-15T20:08:48.738Z,12.75
2022-11-15T20:11:15.582Z,12.30
2022-11-15T20:13:42.674Z,12.43
2022-11-15T20:16:10.772Z,12.43
2022-11-15T20:18:37.361Z,13.30
2022-11-15T20:21:07.381Z,12.38
2022-11-15T20:23:37.250Z,12.68
2022-11-15T20:26:07.087Z,13.27
2022-11-15T20:28:36.111Z,13.75
2022-11-15T20:31:03.433Z,12.60
2022-11-15T20:33:32.360Z,14.10
2022-11-15T20:36:05.569Z,13.40
2022-11-15T20:38:36.732Z,12.80
2022-11-15T20:41:06.079Z,13.32
2022-11-15T20:43:37.246Z,14.00
2022-11-15T20:46:07.187Z,14.27
2022-11-15T20:48:36.999Z,14.70
2022-11-15T20:51:08.306Z,14.05
2022-11-15T20:53:35.263Z,14.45
2022-11-15T20:56:07.658Z,15.18
2022-11-15T21:01:00.989Z,13.63
2022-11-15T21:03:27.580Z,14.10
2022-11-15T21:05:54.955Z,13.48
2022-11-15T21:08:21.637Z,14.05
2022-11-15T21:11:10.328Z,14.27
2022-11-15T21:13:36.969Z,14.68
2022-11-15T21:16:03.891Z,13.82
2022-11-15T21:18:31.120Z,13.95
2022-11-15T21:21:02.750Z,14.68
2022-11-15T21:23:29.359Z,14.53
2022-11-15T21:25:55.780Z,13.65
2022-11-15T21:28:22.376Z,14.63
2022-11-15T21:30:56.212Z,14.18
2022-11-15T21:33:23.980Z,14.40
2022-11-15T21:35:51.458Z,14.15
2022-11-15T21:38:18.349Z,14.75
2022-11-15T21:40:45.289Z,15.00
2022-11-15T21:43:11.988Z,14.18
2022-11-15T21:45:38.775Z,14.20
2022-11-15T21:48:05.435Z,14.73
2022-11-15T21:50:31.839Z,13.88
2022-11-15T21:52:58.330Z,15.05
2022-11-15T21:55:24.775Z,14.88
2022-11-15T21:57:51.179Z,14.38
2022-11-15T22:00:36.380Z,14.80
2022-11-15T22:03:02.955Z,14.85
2022-11-15T22:05:29.464Z,14.32
2022-11-15T22:07:55.934Z,15.05
2022-11-15T22:10:22.372Z,14.25
2022-11-15T22:12:48.850Z,14.23
2022-11-15T22:15:15.694Z,14.02
2022-11-15T22:18:00.741Z,13.90
2022-11-15T22:20:44.231Z,14.88
2022-11-15T22:23:11.483Z,14.70
2022-11-15T22:25:38.122Z,14.82
2022-11-15T22:28:04.844Z,14.95
2022-11-15T22:30:31.543Z,14.15
2022-11-15T22:32:58.097Z,14.02
2022-11-15T22:35:24.523Z,14.38
2022-11-15T22:37:52.771Z,14.82
2022-11-15T22:40:19.287Z,14.75
2022-11-15T22:42:45.765Z,14.70
2022-11-15T22:45:12.228Z,14.88
2022-11-15T22:47:38.702Z,15.18
2022-11-15T22:50:06.565Z,14.43
2022-11-15T22:52:32.975Z,15.07
2022-11-15T22:54:59.379Z,15.38
2022-11-15T22:57:25.782Z,14.88
2022-11-15T22:59:52.275Z,14.95
2022-11-15T23:02:18.764Z,14.30
2022-11-15T23:04:45.417Z,15.20
2022-11-15T23:07:12.073Z,15.20
2022-11-15T23:09:38.518Z,14.80
2022-11-15T23:12:23.918Z,15.93
2022-11-15T23:14:50.340Z,15.68
2022-11-15T23:17:16.785Z,15.77
2022-11-15T23:19:43.271Z,16.63
2022-11-15T23:22:28.728Z,16.27
2022-11-15T23:24:55.967Z,16.65
2022-11-15T23:27:22.997Z,16.83
2022-11-15T23:30:08.160Z,16.23
2022-11-15T23:32:53.134Z,17.17
2022-11-15T23:35:19.583Z,16.02
2022-11-15T23:37:46.033Z,16.88
2022-11-15T23:40:12.822Z,16.40
2022-11-15T23:42:39.237Z,17.00
2022-11-15T23:45:06.432Z,17.65
2022-11-15T23:47:32.942Z,17.30
2022-11-15T23:49:59.833Z,17.20
2022-11-15T23:52:26.359Z,16.48
2022-11-15T23:54:52.916Z,16.88
2022-11-15T23:57:19.350Z,16.73
2022-11-15T23:59:45.803Z,17.42
